createdAt,value
2019-03-16T17:23:34.537Z,12.343
2019-03-16T17:23:41.378Z,13.617
2019-03-16T17:23:47.957Z,12.754
2019-03-16T17:23:54.556Z,11.412
2019-03-16T17:24:01.110Z,10.015
2019-03-16T17:24:07.663Z,8.672
2019-03-16T17:24:15.858Z,7.552
2019-03-16T17:24:22.524Z,6.657
2019-03-16T17:24:29.118Z,6.02
2019-03-16T17:24:35.963Z,5.899
2019-03-16T17:24:42.475Z,5.291
2019-03-16T17:24:48.791Z,4.771
2019-03-16T17:24:55.336Z,4.236
2019-03-16T17:25:34.106Z,2.537
2019-03-16T17:25:40.653Z,2.401
2019-03-16T17:25:47.154Z,2.288
2019-03-16T17:25:53.710Z,2.144
2019-03-16T17:26:00.266Z,2.04
2019-03-16T17:26:06.821Z,1.923
2019-03-16T17:26:13.377Z,1.812
2019-03-16T17:26:20.104Z,1.705
2019-03-16T17:26:26.771Z,1.617
2019-03-16T17:26:33.215Z,1.546
2019-03-16T17:26:39.674Z,1.477
2019-03-16T17:26:46.185Z,1.424
2019-03-16T17:26:53.108Z,1.359
2019-03-16T17:26:59.927Z,1.283
2019-03-16T17:27:05.924Z,1.234
2019-03-16T17:27:12.515Z,1.187
2019-03-16T17:27:19.090Z,1.129
2019-03-16T17:27:25.640Z,1.107
2019-03-16T17:27:32.193Z,1.074
2019-03-16T17:27:38.754Z,1.02
2019-03-16T17:27:45.390Z,0.967
2019-03-16T17:27:54.143Z,0.927
2019-03-16T17:28:01.662Z,0.878
2019-03-16T17:28:08.253Z,0.839
2019-03-16T17:28:14.832Z,0.802
2019-03-16T17:28:21.418Z,0.766
2019-03-16T17:28:27.974Z,0.766
2019-03-16T17:28:34.567Z,0.731
2019-03-16T17:28:41.161Z,0.722
2019-03-16T17:28:49.332Z,0.689
2019-03-16T17:28:55.854Z,0.656
2019-03-16T17:29:02.424Z,0.64
2019-03-16T17:29:09.012Z,0.632
2019-03-16T17:29:15.536Z,0.632
2019-03-16T17:29:22.131Z,0.608
2019-03-16T17:29:28.728Z,0.585
2019-03-16T17:29:35.369Z,0.57
2019-03-16T17:29:41.833Z,0.563
2019-03-16T17:29:48.393Z,0.54
2019-03-16T17:29:54.954Z,0.519
2019-03-16T17:30:05.409Z,0.498
2019-03-16T17:30:13.477Z,0.484
2019-03-16T17:30:21.073Z,0.464
2019-03-16T17:30:27.642Z,0.444
2019-03-16T17:30:34.317Z,0.431
2019-03-16T17:30:40.799Z,0.419
2019-03-16T17:30:47.359Z,0.406
2019-03-16T17:30:55.511Z,0.4
2019-03-16T17:31:02.224Z,0.388
2019-03-16T17:31:08.662Z,0.376
2019-03-16T17:31:15.217Z,0.37
2019-03-16T17:31:21.787Z,0.353
2019-03-16T17:31:41.363Z,0.341
2019-03-16T17:31:49.312Z,0.33
2019-03-16T17:31:56.110Z,0.325
2019-03-16T17:32:02.498Z,0.325
2019-03-16T17:32:09.048Z,0.325
2019-03-16T17:32:15.649Z,0.33
2019-03-16T17:32:22.298Z,0.336
2019-03-16T17:32:28.755Z,0.336
2019-03-16T17:32:35.335Z,0.341
2019-03-16T17:32:41.970Z,0.003
2019-03-16T17:32:48.461Z,0.003
2019-03-16T17:32:55.060Z,0.325
2019-03-16T17:33:01.577Z,0.308
2019-03-16T17:33:08.138Z,0.298
2019-03-16T17:33:14.720Z,0.288
2019-03-16T17:33:26.241Z,0.277
2019-03-16T17:33:34.584Z,0.272
2019-03-16T17:33:42.457Z,0.262
2019-03-16T17:33:49.002Z,0.253
2019-03-16T17:33:55.563Z,0.253
2019-03-16T17:34:11.795Z,0.234
2019-03-16T17:34:18.313Z,0.229
2019-03-16T17:34:24.892Z,0.229
2019-03-16T17:34:31.450Z,0.229
2019-03-16T17:34:41.202Z,0.234
2019-03-16T17:34:47.814Z,0.238
2019-03-16T17:34:54.405Z,0.243
2019-03-16T17:35:18.843Z,0.248
2019-03-16T17:35:25.331Z,0.253
2019-03-16T17:35:31.932Z,0.258
2019-03-16T17:35:38.495Z,0.253
2019-03-16T17:35:45.359Z,0.258
2019-03-16T17:35:51.644Z,0.253
2019-03-16T17:35:58.215Z,0.248
2019-03-16T17:36:04.781Z,0.243
2019-03-16T17:36:11.367Z,0.238
2019-03-16T17:36:17.912Z,0.234
2019-03-16T17:36:27.670Z,0.22
2019-03-16T17:36:34.245Z,0.22
2019-03-16T17:36:40.805Z,0.22
2019-03-16T17:36:47.338Z,0.211
2019-03-16T17:36:53.899Z,0.002
2019-03-16T17:37:00.556Z,0.194
2019-03-16T17:37:12.464Z,0.194
2019-03-16T17:37:19.969Z,0.194
2019-03-16T17:37:26.560Z,0.19
2019-03-16T17:37:33.157Z,0.186
2019-03-16T17:37:39.778Z,0.002
2019-03-16T17:37:49.408Z,0.186
2019-03-16T17:37:56.022Z,0.186
2019-03-16T17:38:02.563Z,0.19
2019-03-16T17:38:09.154Z,0.194
2019-03-16T17:38:17.309Z,0.194
2019-03-16T17:38:27.062Z,0.186
2019-03-16T17:38:33.632Z,0.182
2019-03-16T17:38:40.198Z,0.186
2019-03-16T17:38:46.901Z,0.19
2019-03-16T17:38:54.904Z,0.186
2019-03-16T17:39:01.504Z,0.186
2019-03-16T17:39:08.010Z,0.182
2019-03-16T17:39:14.583Z,0.186
2019-03-16T17:39:21.136Z,0.186
2019-03-16T17:39:27.761Z,0.182
2019-03-16T17:39:34.420Z,0.182
2019-03-16T17:39:41.056Z,0.182
2019-03-16T17:39:50.609Z,0.178
2019-03-16T17:39:57.204Z,0.178
2019-03-16T17:40:06.801Z,0.174
2019-03-16T17:40:13.533Z,0.17
2019-03-16T17:40:20.095Z,0.162
2019-03-16T17:40:31.461Z,0.158
2019-03-16T17:40:39.625Z,0.158
2019-03-16T17:40:46.198Z,0.154
2019-03-16T17:40:52.755Z,0.151
2019-03-16T17:40:59.328Z,0.154
2019-03-16T17:41:08.677Z,0.147
2019-03-16T17:41:15.642Z,0.151
2019-03-16T17:41:22.229Z,0.143
2019-03-16T17:41:28.797Z,0.143
2019-03-16T17:41:36.947Z,0.14
2019-03-16T17:41:43.507Z,0.143
2019-03-16T17:41:50.074Z,0.14
2019-03-16T17:42:02.605Z,0.136
2019-03-16T17:42:09.601Z,0.136
2019-03-16T17:42:17.752Z,0.14
2019-03-16T17:42:24.349Z,0.143
2019-03-16T17:42:30.929Z,0.14
2019-03-16T17:42:37.537Z,0.14
2019-03-16T17:42:44.083Z,0.136
2019-03-16T17:42:50.673Z,0.133
2019-03-16T17:42:57.289Z,0.133
2019-03-16T17:43:03.835Z,0.133
2019-03-16T17:43:10.355Z,0.126
2019-03-16T17:43:16.961Z,0.126
2019-03-16T17:43:23.516Z,0.122
2019-03-16T17:43:30.066Z,0.122
2019-03-16T17:43:36.622Z,0.122
2019-03-16T17:43:43.175Z,0.126
2019-03-16T17:43:49.767Z,0.129
2019-03-16T17:43:56.320Z,0.129
2019-03-16T17:44:02.926Z,0.129
2019-03-16T17:44:09.515Z,0.133
2019-03-16T17:44:16.085Z,0.136
2019-03-16T17:44:22.650Z,0.136
2019-03-16T17:44:29.207Z,0.136
2019-03-16T17:44:35.786Z,0.136
2019-03-16T17:44:42.427Z,0.136
2019-03-16T17:44:50.945Z,0.133
2019-03-16T17:45:00.368Z,0.129
2019-03-16T17:45:06.865Z,0.126
2019-03-16T17:45:13.465Z,0.126
2019-03-16T17:45:20.030Z,0.129
2019-03-16T17:45:29.791Z,0.129
2019-03-16T17:45:36.385Z,0.133
2019-03-16T17:45:42.975Z,0.136
2019-03-16T17:45:49.533Z,0.136
2019-03-16T17:45:56.123Z,0.136
2019-03-16T17:46:02.703Z,0.136
2019-03-16T17:46:09.265Z,0.136
2019-03-16T17:46:15.815Z,0.14
2019-03-16T17:46:22.496Z,0.14
2019-03-16T17:46:28.958Z,0.14
2019-03-16T17:46:35.499Z,0.14
2019-03-16T17:46:42.079Z,0.136
2019-03-16T17:46:48.635Z,0.136
2019-03-16T17:46:55.223Z,0.136
2019-03-16T17:47:01.787Z,0.001
2019-03-16T17:47:09.968Z,0.129
2019-03-16T17:47:16.548Z,0.129
2019-03-16T17:47:23.136Z,0.129
2019-03-16T17:47:29.702Z,0.129
2019-03-16T17:47:36.273Z,0.129
2019-03-16T17:47:42.856Z,0.129
2019-03-16T17:47:49.430Z,0.129
2019-03-16T17:47:56.001Z,0.133
2019-03-16T17:48:04.189Z,0.133
2019-03-16T17:48:13.920Z,0.133
2019-03-16T17:48:23.679Z,0.136
2019-03-16T17:48:30.268Z,0.133
2019-03-16T17:48:36.891Z,0.133
2019-03-16T17:48:43.428Z,0.133
2019-03-16T17:48:50.002Z,0.129
2019-03-16T17:48:58.190Z,0.122
2019-03-16T17:49:04.759Z,0.122
2019-03-16T17:49:11.285Z,0.119
2019-03-16T17:49:17.842Z,0.116
2019-03-16T17:49:24.430Z,0.116
2019-03-16T17:49:30.988Z,0.109
2019-03-16T17:49:37.576Z,0.106
2019-03-16T17:49:44.135Z,0.103
2019-03-16T17:49:50.712Z,0.103
2019-03-16T17:49:57.417Z,0.103
2019-03-16T17:50:04.960Z,0.1
2019-03-16T17:50:12.059Z,0.097
2019-03-16T17:50:20.237Z,0.097
2019-03-16T17:50:26.802Z,0.1
2019-03-16T17:50:33.329Z,0.1
2019-03-16T17:50:39.880Z,0.1
2019-03-16T17:50:46.468Z,0.097
2019-03-16T17:50:53.049Z,0.097
2019-03-16T17:50:59.644Z,0.097
2019-03-16T17:51:06.220Z,0.097
2019-03-16T17:51:12.821Z,0.097
2019-03-16T17:51:19.365Z,0.094
2019-03-16T17:51:29.151Z,0.094
2019-03-16T17:51:36.728Z,0.091
2019-03-16T17:51:43.967Z,0.094
2019-03-16T17:51:51.478Z,0.097
2019-03-16T17:51:58.627Z,0.094
2019-03-16T17:52:05.166Z,0.097
2019-03-16T17:52:12.054Z,0.097
2019-03-16T17:52:20.138Z,0.094
2019-03-16T17:52:27.716Z,0.097
2019-03-16T17:52:34.923Z,0.097
2019-03-16T17:52:43.005Z,0.1
2019-03-16T17:52:51.240Z,0.1
2019-03-16T17:52:57.494Z,0.1
2019-03-16T17:53:04.062Z,0.1
2019-03-16T17:53:10.967Z,0.001
2019-03-16T17:53:17.181Z,0.097
2019-03-16T17:53:23.803Z,0.094
2019-03-16T17:53:31.942Z,0.091
2019-03-16T17:53:40.106Z,0.094
2019-03-16T17:53:48.274Z,0.091
2019-03-16T17:53:57.830Z,0.085
2019-03-16T17:54:04.720Z,0.082
2019-03-16T17:54:11.290Z,0.082
2019-03-16T17:54:17.835Z,0.082
2019-03-16T17:54:25.912Z,0.085
2019-03-16T17:54:32.570Z,0.082
2019-03-16T17:54:39.040Z,0.082
2019-03-16T17:54:45.582Z,0.08
2019-03-16T17:54:52.165Z,0.08
2019-03-16T17:54:58.732Z,0.077
2019-03-16T17:55:08.313Z,0.074
2019-03-16T17:55:15.067Z,0.072
2019-03-16T17:55:21.623Z,0.072
2019-03-16T17:55:28.197Z,0.074
2019-03-16T17:55:34.792Z,0.074
2019-03-16T17:55:41.348Z,0.074
2019-03-16T17:55:47.900Z,0.072
2019-03-16T17:55:54.457Z,0.069
2019-03-16T17:56:01.013Z,0.069
2019-03-16T17:56:07.651Z,0.069
2019-03-16T17:56:14.261Z,0.069
2019-03-16T17:56:20.689Z,0.069
2019-03-16T17:56:27.280Z,0.069
2019-03-16T17:56:33.837Z,0.069
2019-03-16T17:56:40.397Z,0.072
2019-03-16T17:56:46.930Z,0.072
2019-03-16T17:56:55.088Z,0.072
2019-03-16T17:57:01.873Z,0.072
2019-03-16T17:57:08.213Z,0.072
2019-03-16T17:57:18.973Z,0.072
2019-03-16T17:57:26.167Z,0.072
2019-03-16T17:57:32.733Z,0.069
2019-03-16T17:57:39.297Z,0.069
2019-03-16T17:57:47.460Z,0.066
2019-03-16T17:57:54.015Z,0.066
2019-03-16T17:58:00.661Z,0.066
2019-03-16T17:58:10.321Z,0.069
2019-03-16T17:58:16.903Z,0.066
2019-03-16T17:58:23.432Z,0.066
2019-03-16T17:58:30.005Z,0.066
2019-03-16T17:58:36.570Z,0.069
2019-03-16T17:58:43.110Z,0.069
2019-03-16T17:58:49.703Z,0.069
2019-03-16T17:58:56.301Z,0.069
2019-03-16T17:59:02.835Z,0.069
2019-03-16T17:59:10.493Z,0.069
2019-03-16T17:59:17.577Z,0.069
2019-03-16T17:59:24.181Z,0.069
2019-03-16T17:59:33.478Z,0.069
2019-03-16T17:59:40.585Z,0.069
2019-03-16T17:59:47.126Z,0.069
2019-03-16T17:59:53.597Z,0.069
2019-03-16T18:00:00.417Z,0.069
2019-03-16T18:00:06.756Z,0.072
2019-03-16T18:00:13.329Z,0.074
2019-03-16T18:00:19.920Z,0.077
2019-03-16T18:00:26.482Z,0.074
2019-03-16T18:00:33.045Z,0.072
2019-03-16T18:00:39.594Z,0.072
2019-03-16T18:00:46.167Z,0.072
2019-03-16T18:00:52.776Z,0.069
2019-03-16T18:00:59.291Z,0.072
2019-03-16T18:01:05.943Z,0.072
2019-03-16T18:01:12.400Z,0.072
2019-03-16T18:01:18.999Z,0.072
2019-03-16T18:01:25.548Z,0.072
2019-03-16T18:01:32.236Z,0.072
2019-03-16T18:01:39.110Z,0.072
2019-03-16T18:01:54.156Z,0.072
2019-03-16T18:02:01.425Z,0.066
2019-03-16T18:02:08.002Z,0.066
2019-03-16T18:02:14.582Z,0.064
2019-03-16T18:02:21.182Z,0.062
2019-03-16T18:02:27.801Z,0.062
2019-03-16T18:02:34.361Z,0.064
2019-03-16T18:02:50.361Z,0.064
2019-03-16T18:02:58.750Z,0.062
2019-03-16T18:03:05.244Z,0.062
2019-03-16T18:03:14.110Z,0.062
2019-03-16T18:03:21.613Z,0.062
2019-03-16T18:03:28.129Z,0.062
2019-03-16T18:03:34.719Z,0.057
2019-03-16T18:03:44.577Z,0.057
2019-03-16T18:03:51.293Z,0.057
2019-03-16T18:03:57.591Z,0.054
2019-03-16T18:04:04.123Z,0.054
2019-03-16T18:04:10.685Z,0.054
2019-03-16T18:04:17.222Z,0.054
2019-03-16T18:04:23.808Z,0.054
2019-03-16T18:04:33.601Z,0.052
2019-03-16T18:04:40.189Z,0.052
2019-03-16T18:04:46.734Z,0.052
2019-03-16T18:04:53.308Z,0.052
2019-03-16T18:04:59.909Z,0.052
2019-03-16T18:05:08.090Z,0.05
2019-03-16T18:05:14.680Z,0.05
2019-03-16T18:05:21.229Z,0.05
2019-03-16T18:05:27.809Z,0.048
2019-03-16T18:05:34.331Z,0
2019-03-16T18:05:40.895Z,0.048
2019-03-16T18:05:47.485Z,0.048
2019-03-16T18:05:54.043Z,0.048
2019-03-16T18:06:00.618Z,0.048
2019-03-16T18:06:07.168Z,0.048
2019-03-16T18:06:13.733Z,0.048
2019-03-16T18:06:20.328Z,0.048
2019-03-16T18:06:26.869Z,0.046
2019-03-16T18:06:33.434Z,0.048
2019-03-16T18:06:40.012Z,0.046
2019-03-16T18:06:46.658Z,0.043
2019-03-16T18:06:53.196Z,0.043
2019-03-16T18:07:02.983Z,0.043
2019-03-16T18:07:09.561Z,0.043
2019-03-16T18:07:16.115Z,0.046
2019-03-16T18:07:22.700Z,0.043
2019-03-16T18:07:29.298Z,0.043
2019-03-16T18:07:35.882Z,0.043
2019-03-16T18:07:42.422Z,0.046
2019-03-16T18:07:50.580Z,0.046
2019-03-16T18:07:57.144Z,0.046
2019-03-16T18:08:04.812Z,0.046
2019-03-16T18:08:11.852Z,0.046
2019-03-16T18:08:18.457Z,0.046
2019-03-16T18:08:24.986Z,0.043
2019-03-16T18:08:31.537Z,0.043
2019-03-16T18:08:41.276Z,0.046
2019-03-16T18:08:47.846Z,0.046
2019-03-16T18:08:54.389Z,0.043
2019-03-16T18:09:01.941Z,0.043
2019-03-16T18:09:09.101Z,0.043
2019-03-16T18:09:15.677Z,0.043
2019-03-16T18:09:22.231Z,0.043
2019-03-16T18:09:30.394Z,0.043
2019-03-16T18:09:36.969Z,0.043
2019-03-16T18:09:46.757Z,0.043
2019-03-16T18:09:53.318Z,0.043
2019-03-16T18:09:59.882Z,0
2019-03-16T18:10:06.463Z,0.046
2019-03-16T18:10:14.333Z,0.046
2019-03-16T18:10:21.198Z,0.046
2019-03-16T18:10:27.754Z,0.046
2019-03-16T18:10:34.326Z,0.046
2019-03-16T18:10:40.891Z,0.043
2019-03-16T18:10:47.477Z,0.043
2019-03-16T18:10:54.017Z,0.043
2019-03-16T18:11:00.612Z,0.043
2019-03-16T18:11:07.168Z,0.041
2019-03-16T18:11:14.727Z,0.041
2019-03-16T18:11:21.989Z,0.041
2019-03-16T18:11:28.415Z,0.041
2019-03-16T18:11:34.976Z,0.039
2019-03-16T18:11:41.572Z,0.039
2019-03-16T18:11:51.323Z,0.041
2019-03-16T18:11:59.473Z,0.041
2019-03-16T18:12:10.471Z,0.041
2019-03-16T18:12:19.256Z,0.043
2019-03-16T18:12:27.349Z,0.043
2019-03-16T18:12:35.863Z,0.043
2019-03-16T18:12:43.716Z,0.041
2019-03-16T18:12:51.853Z,0.041
2019-03-16T18:12:58.448Z,0.041
2019-03-16T18:13:05.055Z,0.039
2019-03-16T18:13:11.627Z,0.039
2019-03-16T18:13:18.060Z,0.039
2019-03-16T18:13:25.182Z,0.039
2019-03-16T18:13:32.766Z,0.039
2019-03-16T18:13:40.962Z,0.039
2019-03-16T18:13:50.760Z,0.039
2019-03-16T18:13:57.319Z,0.039
2019-03-16T18:14:03.850Z,0.037
2019-03-16T18:14:15.197Z,0.037
2019-03-16T18:14:21.807Z,0.037
2019-03-16T18:14:28.350Z,0.037
2019-03-16T18:14:34.880Z,0.037
2019-03-16T18:14:41.413Z,0.037
2019-03-16T18:14:47.984Z,0.037
2019-03-16T18:14:57.751Z,0.037
2019-03-16T18:15:07.349Z,0.037
2019-03-16T18:15:14.098Z,0.037
2019-03-16T18:15:20.690Z,0.037
2019-03-16T18:15:27.231Z,0.037
2019-03-16T18:15:33.853Z,0.037
2019-03-16T18:15:40.396Z,0.037
2019-03-16T18:15:46.953Z,0.039
2019-03-16T18:15:53.536Z,0.039
2019-03-16T18:16:00.074Z,0.039
2019-03-16T18:16:06.717Z,0.039
2019-03-16T18:16:16.408Z,0.041
2019-03-16T18:16:22.953Z,0.041
2019-03-16T18:16:31.137Z,0.039
2019-03-16T18:16:37.703Z,0.039
2019-03-16T18:16:46.199Z,0.039
2019-03-16T18:16:54.019Z,0.039
2019-03-16T18:17:00.590Z,0.037
2019-03-16T18:17:07.116Z,0.037
2019-03-16T18:17:13.679Z,0.037
2019-03-16T18:17:21.773Z,0.035
2019-03-16T18:17:28.419Z,0.037
2019-03-16T18:17:35.010Z,0.037
2019-03-16T18:17:41.616Z,0
2019-03-16T18:17:48.146Z,0.037
2019-03-16T18:17:54.722Z,0.037
2019-03-16T18:18:04.042Z,0.037
2019-03-16T18:18:11.038Z,0.039
2019-03-16T18:18:17.626Z,0.039
2019-03-16T18:18:25.810Z,0.039
2019-03-16T18:18:32.329Z,0.039
2019-03-16T18:18:38.901Z,0.041
2019-03-16T18:18:46.567Z,0.041
2019-03-16T18:18:53.620Z,0.041
2019-03-16T18:19:00.180Z,0.041
2019-03-16T18:19:10.014Z,0.039
2019-03-16T18:19:16.520Z,0.039
2019-03-16T18:19:23.115Z,0.037
2019-03-16T18:19:32.870Z,0.037
2019-03-16T18:19:39.570Z,0.035
2019-03-16T18:19:46.051Z,0.035
2019-03-16T18:19:52.636Z,0.035
2019-03-16T18:19:59.181Z,0.035
2019-03-16T18:20:05.816Z,0.034
2019-03-16T18:20:17.230Z,0.034
2019-03-16T18:20:25.267Z,0.034
2019-03-16T18:20:31.855Z,0.034
2019-03-16T18:20:38.466Z,0.035
2019-03-16T18:20:44.967Z,0.035
2019-03-16T18:20:51.545Z,0.035
2019-03-16T18:20:58.105Z,0.035
2019-03-16T18:21:04.675Z,0.035
2019-03-16T18:21:11.213Z,0.035
2019-03-16T18:21:19.385Z,0.035
2019-03-16T18:21:29.129Z,0.037
2019-03-16T18:21:35.680Z,0.035
2019-03-16T18:21:42.251Z,0.035
2019-03-16T18:21:48.780Z,0.035
2019-03-16T18:21:55.336Z,0.035
2019-03-16T18:22:01.928Z,0.034
2019-03-16T18:22:08.498Z,0.034
2019-03-16T18:22:15.067Z,0.034
2019-03-16T18:22:21.654Z,0.034
2019-03-16T18:22:28.211Z,0.034
2019-03-16T18:22:34.762Z,0.034
2019-03-16T18:22:41.354Z,0.253
2019-03-16T18:22:47.916Z,0.998
2019-03-16T18:22:54.502Z,2.439
2019-03-16T18:23:01.110Z,1.735
2019-03-16T18:23:07.663Z,1.223
2019-03-16T18:23:14.185Z,0.858
2019-03-16T18:23:20.774Z,0.664
2019-03-16T18:23:28.906Z,0.477
2019-03-16T18:23:35.652Z,0.376
2019-03-16T18:23:42.478Z,0.314
2019-03-16T18:23:49.922Z,0.258
2019-03-16T18:23:56.810Z,0.203
2019-03-16T18:24:03.360Z,0.229
2019-03-16T18:24:09.920Z,0.451
2019-03-16T18:24:16.481Z,0.451
2019-03-16T18:24:23.438Z,0.431
2019-03-16T18:24:29.600Z,0.388
2019-03-16T18:24:36.178Z,0.336
2019-03-16T18:24:42.739Z,0.298
2019-03-16T18:24:49.411Z,0.243
2019-03-16T18:24:59.070Z,0.216
2019-03-16T18:25:05.624Z,0.194
2019-03-16T20:07:56.861Z,1.359
2019-03-16T20:08:03.419Z,1.532
2019-03-16T20:08:10.397Z,1.574
2019-03-16T20:08:16.982Z,1.518
2019-03-16T20:08:24.728Z,1.41
2019-03-16T20:08:31.318Z,1.321
2019-03-16T20:08:39.439Z,1.199
2019-03-16T20:08:48.189Z,1.074
2019-03-16T20:08:56.917Z,0.937
2019-03-16T20:09:11.411Z,0.784
2019-03-16T20:09:24.480Z,0.68
2019-03-16T20:09:38.153Z,0.57
2019-03-16T20:09:47.591Z,0.526
2019-03-16T20:09:56.351Z,0.484
2019-03-16T20:10:49.103Z,0.314
2019-03-16T20:11:05.791Z,0.298
2019-03-16T20:11:14.944Z,0.262
2019-03-16T20:11:21.721Z,0.253
2019-03-16T20:11:29.706Z,0.238
2019-03-16T20:11:36.334Z,0.229
2019-03-16T20:11:44.561Z,0.225
2019-03-16T20:11:52.031Z,0.22
2019-03-16T20:12:00.088Z,0.216
2019-03-16T20:12:07.469Z,0.211
2019-03-16T20:12:13.937Z,0.207
2019-03-16T20:12:32.788Z,0.194
2019-03-16T20:13:23.929Z,0.154
2019-03-16T20:13:54.775Z,0.133
2019-03-16T20:14:12.750Z,0.122
2019-03-16T20:14:25.397Z,0.126
2019-03-16T20:14:49.345Z,0.122
2019-03-16T20:15:13.360Z,0.119
2019-03-16T20:15:19.334Z,0.116
2019-03-16T20:15:25.924Z,0.116
2019-03-16T20:15:32.496Z,0.116
2019-03-16T20:15:39.058Z,0.112
2019-03-16T20:15:45.679Z,0.109
2019-03-16T20:15:53.328Z,0.103
2019-03-16T20:16:14.387Z,0.1
2019-03-16T20:16:33.724Z,0.094
2019-03-16T20:16:41.324Z,0.091
2019-03-16T20:16:48.933Z,0.091
2019-03-16T20:16:55.516Z,0.091
2019-03-16T20:17:02.089Z,0.001
2019-03-16T20:17:11.864Z,0.091
2019-03-16T20:17:22.342Z,0.091
2019-03-16T20:17:28.226Z,0.091
2019-03-16T20:17:34.815Z,0.091
2019-03-16T20:17:41.365Z,0.088
2019-03-16T20:17:49.555Z,0.088
2019-03-16T20:17:56.147Z,0.088
2019-03-16T20:18:02.707Z,0.082
2019-03-16T20:18:09.261Z,0.082
2019-03-16T20:18:15.818Z,0.077
2019-03-16T20:18:22.391Z,0.077
2019-03-16T20:18:29.014Z,0.077
2019-03-16T20:18:35.537Z,0.074
2019-03-16T20:18:42.129Z,0.072
2019-03-16T20:18:48.675Z,0.069
2019-03-16T20:18:55.251Z,0.066
2019-03-16T20:19:01.839Z,0.064
2019-03-16T20:19:11.557Z,0.064
2019-03-16T20:19:20.885Z,0.062
2019-03-16T20:19:35.419Z,0.064
2019-03-16T20:19:42.525Z,0.066
2019-03-16T20:19:51.100Z,0.066
2019-03-16T20:19:57.267Z,0.066
2019-03-16T20:20:37.032Z,0.059
2019-03-16T20:20:53.359Z,0.062
2019-03-16T20:21:08.961Z,0.064
2019-03-16T20:21:30.478Z,0.059
2019-03-16T20:21:47.944Z,0.054
2019-03-16T20:22:12.168Z,0.059
2019-03-16T20:22:28.345Z,0.059
2019-03-16T20:22:47.431Z,0.062
2019-03-16T20:23:04.931Z,0.057
2019-03-16T20:23:19.486Z,0.052
2019-03-16T20:23:35.425Z,0.052
2019-03-16T20:23:55.450Z,0.052
2019-03-16T20:24:18.069Z,0.052
2019-03-16T20:24:30.714Z,0.05
2019-03-16T20:24:46.743Z,0.048
2019-03-16T20:25:09.662Z,0.001
2019-03-16T20:25:23.136Z,0.052
2019-03-16T20:25:42.694Z,0.054
2019-03-16T20:25:57.472Z,0.057
2019-03-16T20:26:13.730Z,0.054
2019-03-16T20:26:25.661Z,0.052
2019-03-16T20:26:38.547Z,0.05
2019-03-16T20:26:49.803Z,0.05
2019-03-16T20:27:03.236Z,0.001
2019-03-16T20:27:17.474Z,0.054
2019-03-16T20:27:32.739Z,0.057
2019-03-16T20:27:48.069Z,0.057
2019-03-16T20:28:04.049Z,0.057
2019-03-16T20:28:20.591Z,0.057
2019-03-16T20:28:35.369Z,0.054
2019-03-16T20:28:48.026Z,0.052
2019-03-16T20:29:02.045Z,0.048
2019-03-16T20:29:15.642Z,0.05
2019-03-16T20:29:28.527Z,0.052
2019-03-16T20:29:41.636Z,0.05
2019-03-16T20:29:54.611Z,0.052
2019-03-16T20:30:09.896Z,0.054
2019-03-16T20:30:26.723Z,0.05
2019-03-16T20:30:39.558Z,0.046
2019-03-16T20:30:51.043Z,0.043
2019-03-16T20:31:04.390Z,0.046
2019-03-16T20:31:17.331Z,0
2019-03-16T20:31:27.839Z,0.05
2019-03-16T20:31:46.063Z,0.05
2019-03-16T20:31:53.783Z,0.05
2019-03-16T20:32:00.373Z,0.05
2019-03-16T20:32:10.150Z,0.052
2019-03-16T20:32:16.738Z,0.05
2019-03-16T20:32:25.983Z,0.05
2019-03-16T20:32:41.713Z,0.052
2019-03-16T20:33:17.086Z,0.05
2019-03-16T20:33:32.250Z,0.048
2019-03-16T20:33:54.432Z,0.048
2019-03-16T20:34:08.789Z,0.05
2019-03-16T20:34:26.255Z,0.05
2019-03-16T20:34:47.977Z,0.05
2019-03-16T20:35:37.541Z,0.043
2019-03-16T20:35:51.425Z,0.046
2019-03-16T20:36:06.585Z,0.046
2019-03-16T20:36:21.012Z,0.041
2019-03-16T20:36:35.580Z,0.041
2019-03-16T20:36:47.515Z,0.043
2019-03-16T20:36:55.522Z,0.043
2019-03-16T20:37:02.691Z,0.043
2019-03-16T20:37:15.159Z,0.043
2019-03-16T20:37:39.279Z,0.041
2019-03-16T20:37:57.679Z,0.037
2019-03-16T20:38:15.222Z,0.041
2019-03-16T20:38:28.851Z,0.048
2019-03-16T20:38:42.473Z,0.05
2019-03-16T20:38:58.315Z,0.054
2019-03-16T20:39:14.277Z,0.054
2019-03-16T20:39:30.159Z,0.05
2019-03-16T20:39:41.913Z,0.046
2019-03-16T20:39:54.380Z,0.043
2019-03-16T23:57:46.127Z,0.034
2019-03-16T23:57:52.699Z,0.037
2019-03-16T23:58:02.456Z,0.039
2019-03-16T23:58:09.039Z,0.041
2019-03-16T23:58:15.624Z,0.041
2019-03-16T23:58:23.798Z,0.043
2019-03-16T23:58:30.384Z,0.043
2019-03-16T23:58:36.967Z,0.046
2019-03-16T23:58:43.558Z,0.14
2019-03-16T23:58:51.750Z,0.143
2019-03-16T23:58:58.325Z,0.136
2019-03-16T23:59:04.880Z,0.133
2019-03-16T23:59:11.480Z,0.126
2019-03-16T23:59:22.366Z,0.112
2019-03-16T23:59:29.425Z,0.106
2019-03-16T23:59:37.089Z,0.097
2019-03-16T23:59:44.163Z,0.091
2019-03-16T23:59:50.746Z,0.091
2019-03-16T23:59:57.303Z,0.091
